Vidin, Bulgaria
Current Conditions -  °F | °C
As of 2:00 AM on Sunday 26 Oct 2014 (Local Time) from LRCV Reporting Station
Drizzle Drizzle  
Wind Chill: 30°   Ceiling: 500
Heat Index: 36°   Visibility: 1.8mi
Dew Point: 34°   Wind: 7mph
Humidity: 93%   Direction: 260°W
Pressure: 30.36"   Gusts: NA
Location:  44.01°N, 22.87°E
Report Text: LRCV 252300Z 26006KT 3000 DZ BR SCT003 BKN005 02/01 Q1028
Loading
Personal Weather Stations






























Interactive Weather Map
Tropical Storm Tracking
New forecast layout! Learn more

10-Day Weather Forecast

Advertisements
Track Severe Weather on mobile